Terminal Aerodrome Forecast
Issued by NWS

Home | Current Version | Previous Version | Text Only | Print | Product List | Glossary On
Versions: 1 2 3 4 5 6 7 8 9 10 11 12 13 14 15 16 17 18 19 20 21
594
FTAK31 PAJN 111758
TAFAJN
TAF
PAJN 111758Z 1118/1218 12015KT P6SM -SHRA SCT020 BKN040 OVC080
     FM112100 09010KT P6SM VCSH SCT020 OVC050
     FM120000 10005KT P6SM SCT035 OVC060
     FM120400 VRB05KT P6SM BCFG SCT003 OVC060
     FM121000 07007KT P6SM OVC080 WS020/07035KT
     FM121500 09005KT P6SM VCSH SCT035 OVC060=

USA.gov is the U.S. government's official web portal to all federal, state and local government web resources and services.